MUHG/HOG METAR and TAF weather

Enter ICAO airport designator
Station Type Date Time Source
MUHG METAR 2019/08/25 05:50 UTC NOAA

MUHG 250550Z 13004KT 5000 VCFG SKC 24/24 Q1016


Station Type Date Time Source
MUHG Decoded METAR 2019/08/25 05:50 UTC NOAA

Station name not available
Aug 25, 2019 - 01:50 AM EDT / 2019.08.25 0550 UTC
Wind: from the SE (130 degrees) at 5 MPH (4 KT):0
Visibility: 3 mile(s):0
Sky conditions: clear
Weather: fog in the vicinity
Temperature: 75 F (24 C)
Dew Point: 75 F (24 C)
Relative Humidity: 100%
Pressure (altimeter): 30.00 in. Hg (1016 hPa)
ob: MUHG 250550Z 13004KT 5000 VCFG SKC 24/24 Q1016
cycle: 6

Station Type Date Time Source
MUHG TAF 2019/08/25 06:03 UTC NOAA

TAF MUHG 250500Z 2506/2606 VRB03KT 7000 FEW020
TEMPO 2508/2513 3000 BR
BECMG 2514/2515 9000
BECMG 2516/2517 14008KT SCT020
TEMPO 2520/2524 VRB10KT 3000 TSRA SCT018CB BKN020
BECMG 2601/2603 VRB03KT FEW020

Example: see airport list